Time;durP1;ratioP1;P1;durP2;ratioP2;P2;SDS_P1;SDS_P2;PMS_P1;PMS_P2;Temp;Humidity;BMP_temperature;BMP_pressure;BME280_temperature;BME280_humidity;BME280_pressure;Samples;Min_cycle;Max_cycle;Signal;HPM_P1;HPM_P2
2022/09/12 00:00:16;;;;;;;;;;;19.70;52.10;;;17.90;56.10;101377.72;12261433;19;20300;-85
2022/09/12 00:04:18;;;;;;;;;;;19.70;52.10;;;17.38;55.92;101278.63;12260927;19;19914;-85
2022/09/12 00:08:19;;;;;;;;;;;19.70;52.10;;;17.92;56.09;101365.25;12258016;19;19915;-85
2022/09/12 00:12:21;;;;;;;;;;;19.70;52.10;;;17.69;56.04;101332.63;12257896;19;19911;-84
2022/09/12 00:16:24;;;;;;;;;;;19.70;52.00;;;17.75;56.23;101349.81;12258880;19;19958;-85
2022/09/12 00:20:26;;;;;;;;;;;19.70;51.90;;;17.78;55.99;101360.13;12257318;19;19934;-84
2022/09/12 00:24:28;;;;;;;;;;;19.70;51.90;;;17.76;56.09;101354.13;12259537;19;20362;-85
2022/09/12 00:28:29;;;;;;;;;;;19.60;51.90;;;17.66;56.15;101344.25;12257133;19;20338;-85
2022/09/12 00:32:31;;;;;;;;;;;19.60;51.90;;;17.65;56.20;101347.84;12256047;19;20611;-84
2022/09/12 00:36:33;;;;;;;;;;;19.70;52.00;;;17.73;56.21;101359.63;12257936;19;19915;-85
2022/09/12 00:40:34;;;;;;;;;;;19.60;51.90;;;17.58;56.15;101335.22;12258521;19;20253;-85
2022/09/12 00:44:36;;;;;;;;;;;19.50;51.80;;;17.65;55.95;101353.13;12257565;19;19926;-84
2022/09/12 00:48:44;;;;;;;;;;;19.50;51.70;;;17.46;56.07;101321.13;12256308;19;19911;-85
2022/09/12 00:52:51;;;;;;;;;;;19.50;51.60;;;17.45;56.11;101335.31;12254982;19;20529;-85
2022/09/12 00:56:54;;;;;;;;;;;19.50;51.70;;;17.38;56.11;101340.19;12257266;19;19942;-85
2022/09/12 01:00:57;;;;;;;;;;;19.60;51.80;;;17.37;56.09;101337.66;12256758;19;19932;-85
2022/09/12 01:04:59;;;;;;;;;;;19.30;51.70;;;17.38;56.06;101352.53;12256516;19;19926;-85
2022/09/12 01:09:03;;;;;;;;;;;19.30;51.70;;;17.27;56.04;101339.28;12252350;19;20249;-85
2022/09/12 01:13:07;;;;;;;;;;;19.60;51.70;;;17.26;56.43;101349.03;12253079;19;20341;-85
2022/09/12 01:17:13;;;;;;;;;;;19.30;51.60;;;17.17;56.20;101342.59;12263895;19;19910;-85
2022/09/12 01:21:54;;;;;;;;;;;19.10;51.50;;;17.18;56.36;101357.50;12269720;19;19915;-85
2022/09/12 01:26:06;;;;;;;;;;;19.10;51.50;;;17.12;56.25;101349.16;12261057;19;19919;-86
2022/09/12 01:30:36;;;;;;;;;;;19.00;51.40;;;17.07;55.92;101353.97;12257871;19;20302;-85
2022/09/12 01:35:01;;;;;;;;;;;19.00;51.30;;;16.95;56.25;101350.41;12261137;19;20333;-85
2022/09/12 01:39:23;;;;;;;;;;;18.90;51.20;;;16.82;56.16;101347.78;12260809;19;19926;-85
2022/09/12 01:43:44;;;;;;;;;;;18.80;51.10;;;16.77;56.09;101350.78;12255277;19;19919;-85
2022/09/12 01:47:55;;;;;;;;;;;18.70;51.20;;;16.67;56.30;101344.44;12250584;19;19921;-85
2022/09/12 01:52:17;;;;;;;;;;;18.70;51.20;;;16.71;56.26;101350.31;12253335;19;19919;-85
2022/09/12 01:56:24;;;;;;;;;;;18.60;51.30;;;16.59;56.18;101336.22;12255415;19;19926;-86
2022/09/12 02:00:26;;;;;;;;;;;18.60;51.70;;;16.60;56.24;101341.38;12253634;19;20029;-85
2022/09/12 02:04:30;;;;;;;;;;;18.50;51.20;;;16.50;56.51;101339.50;12250765;19;20321;-87
2022/09/12 02:08:39;;;;;;;;;;;18.50;51.20;;;16.44;56.22;101337.28;12250558;19;20305;-87
2022/09/12 02:12:48;;;;;;;;;;;18.40;51.20;;;16.37;56.30;101335.09;12250224;19;19928;-86
2022/09/12 02:16:54;;;;;;;;;;;18.40;51.20;;;16.40;56.26;101341.09;12252417;19;19915;-85
2022/09/12 02:20:56;;;;;;;;;;;18.30;51.10;;;16.27;56.37;101339.31;12251491;19;19922;-85
2022/09/12 02:24:59;;;;;;;;;;;18.20;51.10;;;15.80;56.41;101274.09;12253409;19;19915;-85
2022/09/12 02:29:02;;;;;;;;;;;18.20;51.20;;;16.10;56.27;101331.75;12251664;19;19941;-84
2022/09/12 02:33:19;;;;;;;;;;;18.10;51.20;;;16.04;56.38;101333.00;12250748;19;20325;-86
2022/09/12 02:37:44;;;;;;;;;;;18.10;51.20;;;16.02;56.53;101331.44;12252946;19;19923;-85
2022/09/12 02:41:54;;;;;;;;;;;18.10;51.70;;;16.04;56.27;101334.78;12251125;19;19918;-85
2022/09/12 02:45:55;;;;;;;;;;;18.00;51.30;;;15.93;56.37;101319.69;12252969;19;19930;-85
2022/09/12 02:49:58;;;;;;;;;;;18.20;51.40;;;15.58;56.22;101265.00;12249816;19;20292;-85
2022/09/12 02:54:01;;;;;;;;;;;17.90;51.10;;;15.82;56.30;101319.59;12250162;19;19931;-86
2022/09/12 02:58:05;;;;;;;;;;;18.00;51.10;;;15.78;56.43;101326.88;12252107;19;19915;-85
2022/09/12 03:02:37;;;;;;;;;;;17.80;51.10;;;15.80;56.32;101351.31;12257582;19;19919;-85
2022/09/12 03:07:19;;;;;;;;;;;17.80;51.10;;;15.62;56.58;101334.06;12264508;19;19911;-85
2022/09/12 03:11:46;;;;;;;;;;;17.80;51.30;;;15.63;56.45;101344.50;12262166;19;19918;-86
2022/09/12 03:16:14;;;;;;;;;;;17.60;51.30;;;15.72;56.68;101360.69;12265592;19;19986;-85
2022/09/12 03:20:35;;;;;;;;;;;17.60;51.40;;;15.66;56.39;101341.69;12279331;19;19914;-86
2022/09/12 03:25:15;;;;;;;;;;;17.60;51.50;;;15.66;56.55;101346.06;12264066;19;19921;-85
2022/09/12 03:29:18;;;;;;;;;;;17.60;51.40;;;15.63;56.45;101347.13;12261534;19;19919;-85
2022/09/12 03:33:21;;;;;;;;;;;17.60;51.40;;;15.64;56.31;101348.00;12262070;19;19915;-85
2022/09/12 03:37:23;;;;;;;;;;;17.50;51.40;;;15.59;56.27;101342.19;12265456;19;19907;-86
2022/09/12 03:41:24;;;;;;;;;;;17.50;51.40;;;15.47;56.50;101334.16;12263828;19;19919;-85
2022/09/12 03:45:26;;;;;;;;;;;17.50;51.50;;;15.57;56.63;101349.34;12261276;19;19927;-85
2022/09/12 03:49:27;;;;;;;;;;;17.50;51.60;;;15.39;56.66;101318.03;12257998;19;20326;-86
2022/09/12 03:53:29;;;;;;;;;;;17.50;51.70;;;15.58;56.74;101348.38;12258269;19;19918;-85
2022/09/12 03:57:31;;;;;;;;;;;17.40;51.80;;;15.47;56.87;101328.03;12261979;19;19919;-86
2022/09/12 04:01:33;;;;;;;;;;;17.40;51.80;;;15.58;56.84;101345.75;12257472;19;19943;-85
2022/09/12 04:05:35;;;;;;;;;;;17.50;51.90;;;15.52;56.66;101330.34;12260185;19;19939;-85
2022/09/12 04:09:36;;;;;;;;;;;17.50;52.00;;;15.66;56.70;101336.41;12257359;19;19949;-86
2022/09/12 04:13:39;;;;;;;;;;;17.50;52.00;;;15.62;56.61;101332.28;12255045;19;19935;-87
2022/09/12 04:17:41;;;;;;;;;;;17.60;52.00;;;15.74;56.67;101359.59;12259861;19;19922;-86
2022/09/12 04:21:43;;;;;;;;;;;17.60;52.00;;;15.38;56.67;101311.06;12260097;19;19918;-85
2022/09/12 04:25:53;;;;;;;;;;;17.60;51.90;;;15.66;56.77;101361.88;12258783;19;19951;-86
2022/09/12 04:29:55;;;;;;;;;;;17.60;51.80;;;15.65;56.81;101362.84;12256012;19;19915;-85
2022/09/12 04:33:58;;;;;;;;;;;17.70;51.80;;;15.63;56.70;101354.19;12253624;19;19915;-85
2022/09/12 04:38:00;;;;;;;;;;;17.70;51.80;;;15.52;56.62;101338.25;12259030;19;20054;-85
2022/09/12 04:42:03;;;;;;;;;;;17.50;51.80;;;15.48;56.65;101333.19;12256014;19;20369;-85
2022/09/12 04:46:06;;;;;;;;;;;17.50;51.70;;;15.43;56.54;101327.41;12257999;19;19947;-85
2022/09/12 04:50:08;;;;;;;;;;;17.50;51.70;;;15.52;56.84;101346.16;12254647;19;19926;-86
2022/09/12 04:54:15;;;;;;;;;;;17.50;51.60;;;15.48;56.84;101350.78;12254405;19;19921;-86
2022/09/12 04:58:17;;;;;;;;;;;17.50;51.60;;;15.35;56.83;101337.59;12258082;19;19925;-86
2022/09/12 05:02:18;;;;;;;;;;;17.50;51.70;;;14.91;56.81;101262.41;12254600;19;20333;-85
2022/09/12 05:06:25;;;;;;;;;;;17.50;51.70;;;15.44;56.86;101358.03;12256663;19;20373;-85
2022/09/12 05:10:27;;;;;;;;;;;17.40;51.70;;;15.22;56.92;101332.25;12256251;19;19914;-86
2022/09/12 05:14:31;;;;;;;;;;;17.30;51.70;;;14.97;57.05;101290.94;12253860;19;20305;-85
2022/09/12 05:18:34;;;;;;;;;;;17.30;51.70;;;15.19;57.04;101327.22;12255602;19;19918;-86
2022/09/12 05:22:36;;;;;;;;;;;17.30;51.80;;;15.40;56.92;101369.72;12265842;19;19926;-86
2022/09/12 05:26:37;;;;;;;;;;;17.20;51.80;;;15.32;56.87;101358.00;12257936;19;19939;-85
2022/09/12 05:30:39;;;;;;;;;;;17.30;51.90;;;15.30;57.03;101358.09;12255828;19;19950;-86
2022/09/12 05:34:40;;;;;;;;;;;17.30;51.90;;;15.38;56.82;101371.59;12256490;19;19919;-86
2022/09/12 05:38:42;;;;;;;;;;;17.30;52.00;;;15.40;56.79;101371.50;12256014;19;19925;-85
2022/09/12 05:42:44;;;;;;;;;;;17.30;51.90;;;15.27;56.79;101355.66;12253023;19;19919;-85
2022/09/12 05:46:49;;;;;;;;;;;17.60;52.00;;;15.36;56.91;101381.38;12255391;19;19939;-86
2022/09/12 05:50:50;;;;;;;;;;;17.70;52.10;;;15.33;56.84;101370.19;12256000;19;19979;-85
2022/09/12 05:54:52;;;;;;;;;;;17.30;52.00;;;15.26;56.99;101364.50;12253950;19;19918;-85
2022/09/12 05:58:57;;;;;;;;;;;17.30;52.00;;;15.39;57.00;101386.47;12256105;19;20337;-86
2022/09/12 06:02:58;;;;;;;;;;;17.30;52.00;;;14.83;57.00;101297.09;12253377;19;19911;-86
2022/09/12 06:07:00;;;;;;;;;;;17.70;52.30;;;15.44;56.93;101388.78;12258170;19;20301;-86
2022/09/12 06:11:04;;;;;;;;;;;17.40;52.20;;;15.53;57.06;101398.72;12257003;19;19918;-86
2022/09/12 06:15:06;;;;;;;;;;;17.40;52.30;;;15.62;57.07;101398.09;12259410;19;19914;-85
2022/09/12 06:19:16;;;;;;;;;;;17.50;52.40;;;15.67;57.08;101396.00;12260850;19;19932;-86
2022/09/12 06:23:18;;;;;;;;;;;17.50;52.50;;;15.78;57.19;101408.50;12257794;19;19932;-87
2022/09/12 06:27:20;;;;;;;;;;;17.60;52.70;;;15.66;57.31;101362.75;12260137;19;19922;-86
2022/09/12 06:31:24;;;;;;;;;;;17.60;52.80;;;15.98;57.19;101403.69;12258730;19;19911;-86
2022/09/12 06:35:26;;;;;;;;;;;17.70;53.30;;;15.95;57.25;101385.47;12257123;19;20271;-86
2022/09/12 06:39:27;;;;;;;;;;;17.80;53.00;;;16.17;57.37;101398.88;12253823;19;20016;-86
2022/09/12 06:43:29;;;;;;;;;;;17.90;53.10;;;16.29;57.24;101408.59;12251614;19;19919;-85
2022/09/12 06:47:31;;;;;;;;;;;18.00;53.10;;;16.32;57.12;101403.09;12252144;19;19919;-86
2022/09/12 06:51:35;;;;;;;;;;;18.10;53.30;;;16.46;57.13;101420.59;12249469;19;19924;-86
2022/09/12 06:55:36;;;;;;;;;;;18.10;53.30;;;15.99;57.24;101324.56;12250949;19;20526;-85
2022/09/12 06:59:37;;;;;;;;;;;18.30;53.40;;;16.64;57.38;101407.09;12252986;19;19911;-85
2022/09/12 07:03:39;;;;;;;;;;;18.40;53.50;;;16.64;57.46;101392.13;12249170;19;19923;-85
2022/09/12 07:07:41;;;;;;;;;;;18.50;53.50;;;16.89;57.31;101412.38;12256271;19;19918;-86
2022/09/12 07:11:44;;;;;;;;;;;18.60;53.70;;;16.89;57.28;101390.41;12258188;19;19915;-86
2022/09/12 07:15:45;;;;;;;;;;;18.70;53.70;;;17.00;57.52;101398.41;12259554;19;19919;-86
2022/09/12 07:19:47;;;;;;;;;;;18.80;53.70;;;17.11;57.53;101411.66;12259850;19;19929;-86
2022/09/12 07:23:50;;;;;;;;;;;18.80;53.60;;;17.15;57.41;101402.59;12266115;19;19919;-86
2022/09/12 07:27:52;;;;;;;;;;;19.00;53.70;;;17.23;57.58;101400.25;12257389;19;19919;-86
2022/09/12 07:31:54;;;;;;;;;;;19.00;53.80;;;17.19;57.58;101372.38;12252410;19;19925;-86
2022/09/12 07:36:03;;;;;;;;;;;19.10;53.80;;;17.61;57.54;101425.63;12254957;19;19918;-86
2022/09/12 07:40:05;;;;;;;;;;;19.30;54.10;;;17.80;57.88;101419.03;12252773;19;19947;-86
2022/09/12 07:44:07;;;;;;;;;;;19.40;54.20;;;17.98;58.04;101417.63;12249981;19;19925;-85
2022/09/12 07:48:08;;;;;;;;;;;19.60;54.30;;;18.07;58.00;101403.72;12257779;19;19947;-86
2022/09/12 07:52:13;;;;;;;;;;;19.80;54.30;;;18.13;57.77;101397.97;12263750;19;19915;-86
2022/09/12 07:56:15;;;;;;;;;;;20.00;54.20;;;18.28;57.80;101398.63;12265687;19;20389;-86
2022/09/12 08:00:17;;;;;;;;;;;20.40;54.10;;;18.53;57.58;101421.34;12267070;19;19915;-86
2022/09/12 08:04:22;;;;;;;;;;;20.20;53.80;;;18.58;57.83;101416.53;12266277;19;20326;-86
2022/09/12 08:08:26;;;;;;;;;;;20.30;53.80;;;18.34;57.77;101363.75;12263714;19;19927;-86
2022/09/12 08:12:28;;;;;;;;;;;20.60;53.90;;;18.71;57.45;101405.84;12259803;19;19947;-86
2022/09/12 08:16:30;;;;;;;;;;;20.50;53.90;;;18.62;57.82;101366.03;12261102;19;19923;-86
2022/09/12 08:20:32;;;;;;;;;;;20.60;53.90;;;18.96;57.85;101386.25;12261256;19;19918;-85
2022/09/12 08:24:34;;;;;;;;;;;20.80;54.80;;;19.22;57.93;101415.06;12259489;19;19974;-87
2022/09/12 08:28:36;;;;;;;;;;;20.90;54.20;;;19.32;57.48;101416.00;12258543;19;19910;-86
2022/09/12 08:32:37;;;;;;;;;;;21.00;53.90;;;19.43;57.44;101420.44;12255664;19;20368;-86
2022/09/12 08:36:39;;;;;;;;;;;21.20;53.90;;;19.46;57.50;101418.38;12256567;19;19917;-86
2022/09/12 08:40:56;;;;;;;;;;;21.20;53.80;;;19.48;57.80;101417.41;12256471;19;19915;-86
2022/09/12 08:45:06;;;;;;;;;;;21.30;53.80;;;19.46;57.88;101381.28;12255223;19;19923;-86
2022/09/12 08:49:14;;;;;;;;;;;21.40;53.80;;;19.89;57.90;101428.09;12260106;19;19914;-86
2022/09/12 08:53:20;;;;;;;;;;;21.60;54.20;;;19.65;57.57;101374.47;12262163;19;19915;-86
2022/09/12 08:57:22;;;;;;;;;;;21.70;53.70;;;20.10;57.45;101422.81;12263616;19;19917;-86
2022/09/12 09:01:30;;;;;;;;;;;21.80;53.60;;;20.11;57.42;101407.75;12264735;19;19939;-87
2022/09/12 09:05:35;;;;;;;;;;;21.90;53.40;;;20.38;57.49;101425.75;12266675;19;19922;-86
2022/09/12 09:10:14;;;;;;;;;;;22.10;53.50;;;20.57;57.96;101417.09;12260026;19;19911;-85
2022/09/12 09:14:47;;;;;;;;;;;22.20;53.50;;;20.71;57.82;101414.09;12253210;19;19930;-85
2022/09/12 09:18:49;;;;;;;;;;;22.40;53.30;;;20.46;57.55;101359.63;12256094;19;19918;-85
2022/09/12 09:23:09;;;;;;;;;;;22.50;53.20;;;20.86;57.50;101392.47;12251476;19;20283;-84
2022/09/12 09:27:26;;;;;;;;;;;22.60;53.20;;;21.07;57.64;101403.88;12262722;19;19923;-84
2022/09/12 09:31:34;;;;;;;;;;;22.70;53.20;;;21.19;57.49;101400.09;12267447;19;19938;-85
2022/09/12 09:36:19;;;;;;;;;;;22.80;53.10;;;21.39;57.49;101402.84;12261199;19;19915;-85
2022/09/12 09:40:25;;;;;;;;;;;23.00;52.90;;;21.48;57.41;101394.03;12255258;19;19919;-85
2022/09/12 09:44:28;;;;;;;;;;;23.20;53.00;;;21.35;57.30;101361.53;12257245;19;19990;-85
2022/09/12 09:48:32;;;;;;;;;;;23.20;52.70;;;21.62;57.04;101396.25;12256260;19;19923;-85
2022/09/12 09:52:35;;;;;;;;;;;23.40;52.20;;;21.43;57.24;101353.72;12256590;19;19910;-85
2022/09/12 09:56:39;;;;;;;;;;;23.40;52.40;;;21.81;57.07;101391.91;12257346;19;20330;-84
2022/09/12 10:00:40;;;;;;;;;;;23.50;52.40;;;21.98;57.17;101404.50;12254184;19;19919;-84
2022/09/12 10:04:54;;;;;;;;;;;23.60;52.30;;;21.95;57.02;101380.81;12251638;19;19929;-85
2022/09/12 10:09:20;;;;;;;;;;;23.70;51.10;;;22.03;56.71;101393.41;12245756;19;19915;-84
2022/09/12 10:13:27;;;;;;;;;;;23.80;51.30;;;22.11;56.82;101390.88;12247359;19;20372;-84
2022/09/12 10:17:42;;;;;;;;;;;24.20;51.80;;;22.18;57.12;101375.19;12251083;19;19911;-84
2022/09/12 10:21:51;;;;;;;;;;;23.90;51.70;;;22.33;56.73;101388.88;12246732;19;19927;-85
2022/09/12 10:25:56;;;;;;;;;;;24.00;51.80;;;22.14;56.93;101333.88;12252855;19;20557;-85
2022/09/12 10:30:02;;;;;;;;;;;24.20;51.80;;;22.56;56.61;101386.72;12252021;19;19991;-84
2022/09/12 10:34:04;;;;;;;;;;;24.20;51.60;;;22.62;56.58;101380.78;12252841;19;20531;-85
2022/09/12 10:38:16;;;;;;;;;;;24.30;51.60;;;22.33;56.24;101328.50;12253848;19;19911;-85
2022/09/12 10:42:37;;;;;;;;;;;24.40;51.50;;;22.58;56.43;101352.81;12251245;19;19927;-85
2022/09/12 10:46:39;;;;;;;;;;;24.40;50.20;;;22.70;56.50;101371.06;12254043;19;19915;-84
2022/09/12 10:50:41;;;;;;;;;;;24.50;51.10;;;22.83;56.30;101373.41;12254975;19;19911;-85
2022/09/12 10:54:44;;;;;;;;;;;24.60;51.20;;;22.86;56.35;101365.09;12253332;19;19919;-84
2022/09/12 10:59:11;;;;;;;;;;;24.60;50.50;;;22.86;56.20;101351.78;12250696;19;19922;-85
2022/09/12 11:03:23;;;;;;;;;;;24.60;50.70;;;22.59;56.01;101287.91;12250181;19;19915;-85
2022/09/12 11:07:34;;;;;;;;;;;24.70;50.90;;;23.10;55.94;101358.41;12255633;19;19923;-85
2022/09/12 11:11:53;;;;;;;;;;;24.80;50.90;;;23.17;55.99;101356.81;12259860;19;19979;-85
2022/09/12 11:16:11;;;;;;;;;;;24.80;50.90;;;23.26;55.70;101358.56;12252076;19;19915;-84
2022/09/12 11:20:37;;;;;;;;;;;24.90;50.50;;;23.17;55.84;101354.16;12256128;19;19907;-85
2022/09/12 11:25:10;;;;;;;;;;;24.90;48.90;;;23.16;55.62;101353.28;12267505;19;19918;-85
2022/09/12 11:29:12;;;;;;;;;;;24.90;49.60;;;23.32;55.84;101359.78;12263381;19;19907;-85
2022/09/12 11:33:40;;;;;;;;;;;24.90;50.20;;;23.45;55.49;101354.91;12273023;19;19993;-85
2022/09/12 11:38:00;;;;;;;;;;;25.10;50.20;;;23.56;55.60;101360.00;12271325;19;19922;-85
2022/09/12 11:42:04;;;;;;;;;;;25.20;50.20;;;23.61;55.45;101352.38;12266507;19;19971;-85
2022/09/12 11:46:20;;;;;;;;;;;25.30;49.60;;;23.61;55.15;101359.53;12266874;19;20278;-85
2022/09/12 11:50:28;;;;;;;;;;;25.30;48.90;;;23.48;54.96;101349.25;12260715;19;19945;-84
2022/09/12 11:54:46;;;;;;;;;;;25.30;49.30;;;23.45;55.14;101354.06;12264488;19;19915;-84
2022/09/12 11:58:57;;;;;;;;;;;25.20;49.30;;;23.33;55.11;101348.97;12268919;19;19935;-85
2022/09/12 12:03:17;;;;;;;;;;;25.20;49.30;;;23.34;55.39;101347.97;12264817;19;19981;-84
2022/09/12 12:07:19;;;;;;;;;;;25.10;49.50;;;23.09;55.13;101306.94;12270666;19;19939;-86
2022/09/12 12:11:32;;;;;;;;;;;25.30;49.70;;;23.39;55.40;101335.03;12269011;19;19923;-86
2022/09/12 12:15:36;;;;;;;;;;;25.10;49.60;;;23.41;54.91;101332.19;12265202;19;19919;-85
2022/09/12 12:19:37;;;;;;;;;;;25.10;49.00;;;23.51;55.21;101334.78;12266986;19;19982;-85
2022/09/12 12:23:39;;;;;;;;;;;25.20;49.30;;;23.48;54.96;101309.28;12262646;19;19960;-87
2022/09/12 12:27:46;;;;;;;;;;;25.40;49.40;;;23.62;54.76;101315.88;12260861;19;19926;-86
2022/09/12 12:31:57;;;;;;;;;;;25.30;49.10;;;23.70;54.73;101315.91;12262995;19;19926;-85
2022/09/12 12:35:58;;;;;;;;;;;25.30;49.10;;;23.74;54.50;101316.50;12258047;19;19940;-86
2022/09/12 12:40:24;;;;;;;;;;;25.30;49.00;;;23.79;54.49;101315.03;12260640;19;19927;-85
2022/09/12 12:44:43;;;;;;;;;;;25.40;49.10;;;23.83;54.93;101310.22;12259315;19;19975;-85
2022/09/12 12:48:54;;;;;;;;;;;25.50;48.80;;;23.87;54.45;101300.06;12260661;19;20357;-87
2022/09/12 12:53:14;;;;;;;;;;;25.50;48.60;;;23.70;54.65;101283.91;12258680;19;20267;-86
2022/09/12 12:57:30;;;;;;;;;;;25.50;48.90;;;23.93;54.23;101299.44;12258205;19;19921;-86
2022/09/12 13:01:38;;;;;;;;;;;25.60;48.70;;;23.92;54.13;101298.59;12255166;19;19915;-85
2022/09/12 13:05:50;;;;;;;;;;;25.70;48.60;;;23.72;54.36;101257.97;12260636;19;19932;-84
2022/09/12 13:09:51;;;;;;;;;;;25.60;48.60;;;24.02;53.86;101304.66;12250060;19;20011;-84
2022/09/12 13:14:05;;;;;;;;;;;25.70;48.70;;;24.03;54.41;101295.66;12249353;19;19990;-85
2022/09/12 13:18:22;;;;;;;;;;;25.70;48.60;;;23.92;53.68;101276.41;12251729;19;19931;-85
2022/09/12 13:22:24;;;;;;;;;;;25.70;49.00;;;23.94;53.68;101285.94;12250969;19;19998;-84
2022/09/12 13:26:25;;;;;;;;;;;25.70;48.40;;;23.96;53.93;101273.28;12255160;19;19951;-86
2022/09/12 13:30:30;;;;;;;;;;;25.70;48.90;;;23.59;53.80;101218.34;12250979;19;19930;-84
2022/09/12 13:35:12;;;;;;;;;;;25.80;48.60;;;23.97;53.99;101268.78;12250198;19;20376;-84
2022/09/12 13:39:20;;;;;;;;;;;25.70;48.60;;;24.00;53.75;101284.47;12256104;19;19915;-86
2022/09/12 13:43:39;;;;;;;;;;;25.70;48.30;;;23.89;54.03;101269.56;12254003;19;20314;-85
2022/09/12 13:47:46;;;;;;;;;;;25.60;48.30;;;23.75;53.61;101243.47;12256752;19;19923;-85
2022/09/12 13:51:57;;;;;;;;;;;25.70;48.50;;;23.89;53.61;101256.22;12256747;19;19942;-85
2022/09/12 13:56:00;;;;;;;;;;;25.60;48.40;;;23.81;53.84;101237.50;12255456;19;20340;-85
2022/09/12 14:00:06;;;;;;;;;;;25.60;48.40;;;23.88;53.54;101251.91;12256014;19;20429;-86
2022/09/12 14:08:42;;;;;;;;;;;25.60;48.30;;;23.90;53.38;101263.25;12255467;19;19925;-85
2022/09/12 14:12:49;;;;;;;;;;;25.70;48.10;;;23.88;53.52;101261.72;12251742;19;20346;-85
2022/09/12 14:16:52;;;;;;;;;;;25.60;48.10;;;23.85;53.65;101255.72;12256611;19;19919;-85
2022/09/12 14:20:56;;;;;;;;;;;25.50;48.10;;;23.81;53.37;101246.34;12252840;19;19933;-85
2022/09/12 14:24:58;;;;;;;;;;;25.60;48.10;;;23.89;53.41;101256.22;12251442;19;20333;-85
2022/09/12 14:29:00;;;;;;;;;;;25.60;48.50;;;23.82;52.97;101239.19;12251373;19;20022;-85
2022/09/12 14:33:17;;;;;;;;;;;25.60;48.00;;;23.86;52.94;101251.22;12248917;19;20426;-86
2022/09/12 14:37:18;;;;;;;;;;;25.50;48.10;;;23.82;53.26;101237.38;12253508;19;20293;-86
2022/09/12 14:41:23;;;;;;;;;;;25.50;48.00;;;23.77;53.35;101233.50;12251025;19;19962;-85
2022/09/12 14:45:28;;;;;;;;;;;25.50;47.70;;;23.75;53.17;101230.97;12251676;19;19933;-85
2022/09/12 14:49:34;;;;;;;;;;;25.50;47.70;;;23.64;53.04;101199.22;12248821;19;19911;-86
2022/09/12 14:53:36;;;;;;;;;;;25.50;48.00;;;23.89;53.01;101244.72;12247839;19;19933;-85
2022/09/12 14:57:39;;;;;;;;;;;25.60;47.80;;;23.85;53.04;101242.38;12261015;19;20325;-86
2022/09/12 15:01:41;;;;;;;;;;;25.50;47.60;;;23.30;52.66;101154.69;12262642;19;20324;-84
2022/09/12 15:05:49;;;;;;;;;;;25.70;47.80;;;23.34;52.70;101155.22;12263461;19;20440;-84
2022/09/12 15:09:51;;;;;;;;;;;25.50;47.70;;;23.40;52.77;101151.94;12262795;19;20351;-85
2022/09/12 15:13:53;;;;;;;;;;;25.80;47.90;;;23.89;53.03;101228.72;12259403;19;19941;-87
2022/09/12 15:17:54;;;;;;;;;;;25.50;47.70;;;23.57;52.72;101177.69;12263341;19;19919;-85
2022/09/12 15:21:56;;;;;;;;;;;25.70;47.90;;;23.70;52.83;101203.09;12264672;19;19911;-86
2022/09/12 15:26:01;;;;;;;;;;;25.50;47.80;;;23.84;52.58;101227.38;12256051;19;21147;-86
2022/09/12 15:30:03;;;;;;;;;;;25.90;47.90;;;23.83;52.89;101235.53;12258817;19;20329;-85
2022/09/12 15:34:04;;;;;;;;;;;25.50;47.50;;;23.41;52.52;101162.44;12258945;19;19919;-85
2022/09/12 15:38:06;;;;;;;;;;;25.50;47.80;;;23.81;52.59;101232.16;12262918;19;19919;-86
2022/09/12 15:42:09;;;;;;;;;;;25.50;47.70;;;23.35;52.55;101152.41;12268845;19;19934;-86
2022/09/12 15:46:13;;;;;;;;;;;25.50;47.70;;;23.42;52.44;101164.09;12262724;19;19962;-85
2022/09/12 15:50:14;;;;;;;;;;;25.40;47.50;;;23.44;52.71;101171.97;12260405;19;19919;-85
2022/09/12 15:54:17;;;;;;;;;;;25.40;47.60;;;23.62;52.82;101204.69;12258085;19;19934;-85
2022/09/12 15:58:18;;;;;;;;;;;25.40;47.70;;;23.76;52.75;101215.81;12259960;19;19915;-86
2022/09/12 16:02:20;;;;;;;;;;;25.40;47.80;;;23.49;52.34;101172.28;12259237;19;19934;-86
2022/09/12 16:06:22;;;;;;;;;;;25.40;47.80;;;23.38;52.48;101161.91;12260239;19;20311;-86
2022/09/12 16:10:27;;;;;;;;;;;25.40;47.70;;;23.32;52.75;101149.22;12254182;19;19911;-85
2022/09/12 16:14:29;;;;;;;;;;;25.60;47.90;;;23.27;52.57;101146.19;12258172;19;19915;-86
2022/09/12 16:18:31;;;;;;;;;;;25.40;47.80;;;23.23;52.27;101143.00;12260397;19;20249;-87
2022/09/12 16:22:32;;;;;;;;;;;25.30;47.90;;;23.49;52.69;101188.28;12255755;19;19922;-87
2022/09/12 16:26:34;;;;;;;;;;;25.20;48.10;;;23.15;52.38;101137.63;12259795;19;20279;-86
2022/09/12 16:30:35;;;;;;;;;;;25.20;48.30;;;23.42;52.62;101193.44;12254035;19;20242;-84
2022/09/12 16:34:37;;;;;;;;;;;25.10;48.40;;;23.29;52.56;101186.84;12257735;19;20268;-86
2022/09/12 16:38:56;;;;;;;;;;;25.10;48.50;;;23.13;52.49;101167.09;12259483;19;20272;-86
2022/09/12 16:42:58;;;;;;;;;;;25.00;48.50;;;23.02;52.76;101161.19;12256600;19;19918;-86
2022/09/12 16:46:59;;;;;;;;;;;24.90;48.60;;;23.08;52.28;101179.19;12256205;19;20276;-86
2022/09/12 16:51:04;;;;;;;;;;;24.80;48.60;;;22.69;52.37;101118.28;12258240;19;19914;-85
2022/09/12 16:55:06;;;;;;;;;;;24.70;48.60;;;22.94;52.40;101170.75;12257348;19;19934;-85
2022/09/12 16:59:15;;;;;;;;;;;24.70;48.50;;;22.82;52.58;101169.31;12257139;19;20369;-85
2022/09/12 17:03:16;;;;;;;;;;;24.60;48.50;;;22.74;52.72;101169.25;12251875;19;19919;-85
2022/09/12 17:07:18;;;;;;;;;;;24.60;48.60;;;22.62;52.57;101155.31;12256956;19;20345;-86
2022/09/12 17:11:22;;;;;;;;;;;24.40;48.60;;;22.55;52.44;101159.59;12256371;19;19911;-86
2022/09/12 17:15:23;;;;;;;;;;;24.30;48.50;;;22.38;52.71;101144.44;12254229;19;19995;-85
2022/09/12 17:19:28;;;;;;;;;;;24.30;48.60;;;22.30;52.66;101140.75;12252761;19;19939;-85
2022/09/12 17:23:30;;;;;;;;;;;24.20;48.60;;;21.94;52.59;101094.59;12252198;19;19926;-85
2022/09/12 17:27:31;;;;;;;;;;;24.00;48.60;;;21.61;52.71;101051.69;12254065;19;19927;-85
2022/09/12 17:31:32;;;;;;;;;;;24.00;48.70;;;21.91;52.59;101110.03;12252104;19;19922;-86
2022/09/12 17:35:35;;;;;;;;;;;23.90;48.70;;;21.64;52.72;101077.13;12256153;19;19911;-85
2022/09/12 17:39:46;;;;;;;;;;;23.80;48.70;;;21.91;52.74;101140.09;12254944;19;19915;-86
2022/09/12 17:43:51;;;;;;;;;;;23.80;48.70;;;21.58;52.73;101096.34;12264191;19;19923;-86
2022/09/12 17:47:52;;;;;;;;;;;23.60;48.60;;;21.78;52.74;101145.75;12256310;19;19983;-86
2022/09/12 17:51:55;;;;;;;;;;;23.70;48.70;;;21.68;52.71;101144.13;12256321;19;19911;-86
2022/09/12 17:56:01;;;;;;;;;;;23.50;48.70;;;21.52;53.21;101127.00;12256569;19;19914;-86
2022/09/12 18:00:03;;;;;;;;;;;23.50;48.80;;;21.54;53.01;101140.97;12255387;19;19922;-86
2022/09/12 18:04:13;;;;;;;;;;;23.40;48.90;;;21.53;53.22;101147.28;12249064;19;19918;-85
2022/09/12 18:08:14;;;;;;;;;;;23.30;48.90;;;21.40;53.21;101141.44;12250951;19;20337;-86
2022/09/12 18:12:16;;;;;;;;;;;23.30;49.00;;;21.48;53.27;101154.00;12254029;19;19918;-87
2022/09/12 18:16:18;;;;;;;;;;;23.40;49.10;;;21.34;53.22;101148.16;12254636;19;19911;-87
2022/09/12 18:20:20;;;;;;;;;;;23.20;49.00;;;21.29;53.20;101160.19;12255804;19;19922;-86
2022/09/12 18:24:22;;;;;;;;;;;23.10;48.90;;;21.24;52.82;101163.25;12252846;19;19925;-86
2022/09/12 18:28:23;;;;;;;;;;;23.10;48.90;;;21.07;52.88;101146.25;12253455;19;19923;-87
2022/09/12 18:32:25;;;;;;;;;;;23.00;48.90;;;21.14;53.01;101171.28;12249417;19;20248;-87